sensor_id;sensor_type;location;lat;lon;timestamp;temperature;humidity
20284;DHT22;10301;50.832;4.080;2023-02-01T00:01:35;8.40;99.90
20284;DHT22;10301;50.832;4.080;2023-02-01T00:04:00;8.30;99.90
20284;DHT22;10301;50.832;4.080;2023-02-01T00:06:26;8.40;99.90
20284;DHT22;10301;50.832;4.080;2023-02-01T00:08:53;8.60;99.20
20284;DHT22;10301;50.832;4.080;2023-02-01T00:11:20;8.40;98.10
20284;DHT22;10301;50.832;4.080;2023-02-01T00:13:46;8.30;98.00
20284;DHT22;10301;50.832;4.080;2023-02-01T00:16:17;8.40;98.40
20284;DHT22;10301;50.832;4.080;2023-02-01T00:18:46;8.30;97.60
20284;DHT22;10301;50.832;4.080;2023-02-01T00:21:14;8.40;97.20
20284;DHT22;10301;50.832;4.080;2023-02-01T00:23:40;8.20;98.10
20284;DHT22;10301;50.832;4.080;2023-02-01T00:26:09;8.30;98.50
20284;DHT22;10301;50.832;4.080;2023-02-01T00:28:36;8.30;97.80
20284;DHT22;10301;50.832;4.080;2023-02-01T00:31:03;8.10;96.90
20284;DHT22;10301;50.832;4.080;2023-02-01T00:33:30;8.00;97.50
20284;DHT22;10301;50.832;4.080;2023-02-01T00:36:07;8.00;97.80
20284;DHT22;10301;50.832;4.080;2023-02-01T00:38:35;8.00;97.80
20284;DHT22;10301;50.832;4.080;2023-02-01T00:41:04;8.00;94.90
20284;DHT22;10301;50.832;4.080;2023-02-01T00:43:33;7.90;96.60
20284;DHT22;10301;50.832;4.080;2023-02-01T00:46:00;7.80;96.90
20284;DHT22;10301;50.832;4.080;2023-02-01T00:48:26;7.80;96.90
20284;DHT22;10301;50.832;4.080;2023-02-01T00:50:52;7.80;96.80
20284;DHT22;10301;50.832;4.080;2023-02-01T00:53:18;8.00;95.00
20284;DHT22;10301;50.832;4.080;2023-02-01T00:55:45;8.10;93.40
20284;DHT22;10301;50.832;4.080;2023-02-01T00:58:11;8.20;91.90
20284;DHT22;10301;50.832;4.080;2023-02-01T01:00:37;8.10;88.30
20284;DHT22;10301;50.832;4.080;2023-02-01T01:03:03;8.00;90.60
20284;DHT22;10301;50.832;4.080;2023-02-01T01:05:46;7.90;91.00
20284;DHT22;10301;50.832;4.080;2023-02-01T01:08:12;8.00;88.80
20284;DHT22;10301;50.832;4.080;2023-02-01T01:10:39;7.90;86.30
20284;DHT22;10301;50.832;4.080;2023-02-01T01:13:04;7.60;87.80
20284;DHT22;10301;50.832;4.080;2023-02-01T01:15:30;7.70;84.30
20284;DHT22;10301;50.832;4.080;2023-02-01T01:17:56;7.70;85.60
20284;DHT22;10301;50.832;4.080;2023-02-01T01:20:21;7.70;84.70
20284;DHT22;10301;50.832;4.080;2023-02-01T01:22:48;7.70;79.80
20284;DHT22;10301;50.832;4.080;2023-02-01T01:25:14;7.60;81.70
20284;DHT22;10301;50.832;4.080;2023-02-01T01:27:39;7.60;83.10
20284;DHT22;10301;50.832;4.080;2023-02-01T01:30:05;7.70;79.50
20284;DHT22;10301;50.832;4.080;2023-02-01T01:32:31;7.90;76.40
20284;DHT22;10301;50.832;4.080;2023-02-01T01:34:57;7.90;74.70
20284;DHT22;10301;50.832;4.080;2023-02-01T01:37:22;8.00;69.90
20284;DHT22;10301;50.832;4.080;2023-02-01T01:39:48;8.00;70.30
20284;DHT22;10301;50.832;4.080;2023-02-01T01:42:14;7.90;69.90
20284;DHT22;10301;50.832;4.080;2023-02-01T01:45:06;7.80;70.10
20284;DHT22;10301;50.832;4.080;2023-02-01T01:47:43;7.90;70.10
20284;DHT22;10301;50.832;4.080;2023-02-01T01:50:13;7.80;71.80
20284;DHT22;10301;50.832;4.080;2023-02-01T01:52:41;7.90;67.90
20284;DHT22;10301;50.832;4.080;2023-02-01T01:55:09;7.90;67.80
20284;DHT22;10301;50.832;4.080;2023-02-01T01:57:38;7.70;74.60
20284;DHT22;10301;50.832;4.080;2023-02-01T02:00:08;7.70;74.60
20284;DHT22;10301;50.832;4.080;2023-02-01T02:02:36;7.80;74.00
20284;DHT22;10301;50.832;4.080;2023-02-01T02:05:03;7.80;74.80
20284;DHT22;10301;50.832;4.080;2023-02-01T02:07:32;7.60;75.10
20284;DHT22;10301;50.832;4.080;2023-02-01T02:10:00;7.60;78.00
20284;DHT22;10301;50.832;4.080;2023-02-01T02:12:27;7.60;73.10
20284;DHT22;10301;50.832;4.080;2023-02-01T02:14:53;7.60;77.10
20284;DHT22;10301;50.832;4.080;2023-02-01T02:28:12;7.50;78.70
20284;DHT22;10301;50.832;4.080;2023-02-01T02:33:57;7.80;66.20
20284;DHT22;10301;50.832;4.080;2023-02-01T02:36:32;7.80;63.70
20284;DHT22;10301;50.832;4.080;2023-02-01T02:39:13;7.90;59.70
20284;DHT22;10301;50.832;4.080;2023-02-01T02:42:04;7.70;59.90
20284;DHT22;10301;50.832;4.080;2023-02-01T02:45:19;7.80;58.40
20284;DHT22;10301;50.832;4.080;2023-02-01T02:48:17;7.90;53.80
20284;DHT22;10301;50.832;4.080;2023-02-01T02:50:50;7.60;59.20
20284;DHT22;10301;50.832;4.080;2023-02-01T02:56:44;7.50;57.80
20284;DHT22;10301;50.832;4.080;2023-02-01T02:59:29;7.40;58.70
20284;DHT22;10301;50.832;4.080;2023-02-01T03:02:15;7.20;64.30
20284;DHT22;10301;50.832;4.080;2023-02-01T03:04:59;7.20;63.90
20284;DHT22;10301;50.832;4.080;2023-02-01T03:10:35;7.30;61.90
20284;DHT22;10301;50.832;4.080;2023-02-01T03:13:13;7.10;64.90
20284;DHT22;10301;50.832;4.080;2023-02-01T03:18:22;7.10;62.30
20284;DHT22;10301;50.832;4.080;2023-02-01T03:20:51;7.10;62.30
20284;DHT22;10301;50.832;4.080;2023-02-01T03:23:21;7.10;59.90
20284;DHT22;10301;50.832;4.080;2023-02-01T03:25:50;6.90;66.20
20284;DHT22;10301;50.832;4.080;2023-02-01T03:28:18;6.90;66.20
20284;DHT22;10301;50.832;4.080;2023-02-01T03:30:48;6.90;65.80
20284;DHT22;10301;50.832;4.080;2023-02-01T03:33:17;6.70;68.80
20284;DHT22;10301;50.832;4.080;2023-02-01T03:41:40;6.80;66.10
20284;DHT22;10301;50.832;4.080;2023-02-01T03:44:17;6.70;65.50
20284;DHT22;10301;50.832;4.080;2023-02-01T03:47:05;6.50;73.40
20284;DHT22;10301;50.832;4.080;2023-02-01T03:49:35;6.60;73.80
20284;DHT22;10301;50.832;4.080;2023-02-01T03:52:03;6.60;71.60
20284;DHT22;10301;50.832;4.080;2023-02-01T03:54:31;6.60;68.80
20284;DHT22;10301;50.832;4.080;2023-02-01T03:57:00;6.70;68.60
20284;DHT22;10301;50.832;4.080;2023-02-01T03:59:27;6.70;65.70
20284;DHT22;10301;50.832;4.080;2023-02-01T04:01:52;6.80;62.00
20284;DHT22;10301;50.832;4.080;2023-02-01T04:04:18;6.60;63.00
20284;DHT22;10301;50.832;4.080;2023-02-01T04:06:51;6.60;64.00
20284;DHT22;10301;50.832;4.080;2023-02-01T04:09:17;6.50;67.00
20284;DHT22;10301;50.832;4.080;2023-02-01T04:11:43;6.40;70.20
20284;DHT22;10301;50.832;4.080;2023-02-01T04:14:09;6.30;70.30
20284;DHT22;10301;50.832;4.080;2023-02-01T04:16:35;6.20;75.70
20284;DHT22;10301;50.832;4.080;2023-02-01T04:19:01;6.20;74.20
20284;DHT22;10301;50.832;4.080;2023-02-01T04:21:28;6.10;75.90
20284;DHT22;10301;50.832;4.080;2023-02-01T04:23:54;6.10;77.60
20284;DHT22;10301;50.832;4.080;2023-02-01T04:26:20;6.00;77.10
20284;DHT22;10301;50.832;4.080;2023-02-01T04:28:47;5.90;79.90
20284;DHT22;10301;50.832;4.080;2023-02-01T04:31:16;6.00;77.70
20284;DHT22;10301;50.832;4.080;2023-02-01T04:33:43;6.00;74.40
20284;DHT22;10301;50.832;4.080;2023-02-01T04:36:09;6.00;76.10
20284;DHT22;10301;50.832;4.080;2023-02-01T04:38:35;6.00;74.80
20284;DHT22;10301;50.832;4.080;2023-02-01T04:41:01;6.00;76.90
20284;DHT22;10301;50.832;4.080;2023-02-01T04:43:26;6.10;73.80
20284;DHT22;10301;50.832;4.080;2023-02-01T04:45:52;6.00;72.30
20284;DHT22;10301;50.832;4.080;2023-02-01T04:48:20;6.00;75.10
20284;DHT22;10301;50.832;4.080;2023-02-01T04:50:46;6.10;71.80
20284;DHT22;10301;50.832;4.080;2023-02-01T04:53:14;5.90;74.80
20284;DHT22;10301;50.832;4.080;2023-02-01T04:55:40;6.00;73.60
20284;DHT22;10301;50.832;4.080;2023-02-01T04:58:06;5.80;77.40
20284;DHT22;10301;50.832;4.080;2023-02-01T05:00:32;5.80;79.60
20284;DHT22;10301;50.832;4.080;2023-02-01T05:02:57;5.90;78.70
20284;DHT22;10301;50.832;4.080;2023-02-01T05:05:23;5.90;75.70
20284;DHT22;10301;50.832;4.080;2023-02-01T05:07:49;5.80;75.60
20284;DHT22;10301;50.832;4.080;2023-02-01T05:10:15;5.80;73.90
20284;DHT22;10301;50.832;4.080;2023-02-01T05:12:43;5.70;77.60
20284;DHT22;10301;50.832;4.080;2023-02-01T05:15:28;5.60;80.40
20284;DHT22;10301;50.832;4.080;2023-02-01T05:17:54;5.60;84.60
20284;DHT22;10301;50.832;4.080;2023-02-01T05:20:19;5.60;82.30
20284;DHT22;10301;50.832;4.080;2023-02-01T05:22:45;5.70;80.20
20284;DHT22;10301;50.832;4.080;2023-02-01T05:25:10;5.80;77.70
20284;DHT22;10301;50.832;4.080;2023-02-01T05:27:36;5.80;76.90
20284;DHT22;10301;50.832;4.080;2023-02-01T05:30:06;5.80;75.70
20284;DHT22;10301;50.832;4.080;2023-02-01T05:32:32;5.90;74.60
20284;DHT22;10301;50.832;4.080;2023-02-01T05:34:57;5.90;71.10
20284;DHT22;10301;50.832;4.080;2023-02-01T05:37:23;5.80;71.80
20284;DHT22;10301;50.832;4.080;2023-02-01T05:39:49;5.80;75.60
20284;DHT22;10301;50.832;4.080;2023-02-01T05:42:15;5.70;74.00
20284;DHT22;10301;50.832;4.080;2023-02-01T05:44:40;5.60;78.70
20284;DHT22;10301;50.832;4.080;2023-02-01T05:47:06;5.50;81.20
20284;DHT22;10301;50.832;4.080;2023-02-01T05:49:32;5.50;82.30
20284;DHT22;10301;50.832;4.080;2023-02-01T05:51:58;5.50;82.50
20284;DHT22;10301;50.832;4.080;2023-02-01T05:54:23;5.60;80.20
20284;DHT22;10301;50.832;4.080;2023-02-01T05:56:49;5.50;81.00
20284;DHT22;10301;50.832;4.080;2023-02-01T05:59:14;5.40;83.30
20284;DHT22;10301;50.832;4.080;2023-02-01T06:01:40;5.30;86.20
20284;DHT22;10301;50.832;4.080;2023-02-01T06:04:06;5.40;85.30
20284;DHT22;10301;50.832;4.080;2023-02-01T06:06:31;5.60;79.50
20284;DHT22;10301;50.832;4.080;2023-02-01T06:08:57;5.50;79.90
20284;DHT22;10301;50.832;4.080;2023-02-01T06:11:23;5.50;80.40
20284;DHT22;10301;50.832;4.080;2023-02-01T06:13:48;5.40;81.50
20284;DHT22;10301;50.832;4.080;2023-02-01T06:16:14;5.50;80.90
20284;DHT22;10301;50.832;4.080;2023-02-01T06:18:41;5.40;82.20
20284;DHT22;10301;50.832;4.080;2023-02-01T06:21:07;5.30;85.50
20284;DHT22;10301;50.832;4.080;2023-02-01T06:23:33;5.30;86.80
20284;DHT22;10301;50.832;4.080;2023-02-01T06:26:01;5.30;87.60
20284;DHT22;10301;50.832;4.080;2023-02-01T06:28:27;5.30;87.50
20284;DHT22;10301;50.832;4.080;2023-02-01T06:30:54;5.30;87.80
20284;DHT22;10301;50.832;4.080;2023-02-01T06:33:19;5.20;89.50
20284;DHT22;10301;50.832;4.080;2023-02-01T06:35:45;5.40;87.50
20284;DHT22;10301;50.832;4.080;2023-02-01T06:38:13;5.40;85.00
20284;DHT22;10301;50.832;4.080;2023-02-01T06:40:40;5.50;85.70
20284;DHT22;10301;50.832;4.080;2023-02-01T06:43:07;5.40;83.30
20284;DHT22;10301;50.832;4.080;2023-02-01T06:45:33;5.20;89.50
20284;DHT22;10301;50.832;4.080;2023-02-01T06:47:59;5.20;90.40
20284;DHT22;10301;50.832;4.080;2023-02-01T06:50:26;5.10;91.10
20284;DHT22;10301;50.832;4.080;2023-02-01T06:52:52;5.10;91.20
20284;DHT22;10301;50.832;4.080;2023-02-01T06:55:18;5.20;90.90
20284;DHT22;10301;50.832;4.080;2023-02-01T06:57:43;5.20;90.40
20284;DHT22;10301;50.832;4.080;2023-02-01T07:00:09;5.30;88.80
20284;DHT22;10301;50.832;4.080;2023-02-01T07:02:35;5.50;84.90
20284;DHT22;10301;50.832;4.080;2023-02-01T07:05:01;5.50;85.30
20284;DHT22;10301;50.832;4.080;2023-02-01T07:07:26;5.50;84.30
20284;DHT22;10301;50.832;4.080;2023-02-01T07:09:52;5.50;82.00
20284;DHT22;10301;50.832;4.080;2023-02-01T07:12:19;5.60;81.00
20284;DHT22;10301;50.832;4.080;2023-02-01T07:14:44;5.60;83.50
20284;DHT22;10301;50.832;4.080;2023-02-01T07:17:10;5.50;83.00
20284;DHT22;10301;50.832;4.080;2023-02-01T07:19:35;5.40;85.70
20284;DHT22;10301;50.832;4.080;2023-02-01T07:22:01;5.40;86.20
20284;DHT22;10301;50.832;4.080;2023-02-01T07:24:27;5.40;82.90
20284;DHT22;10301;50.832;4.080;2023-02-01T07:26:52;5.40;84.70
20284;DHT22;10301;50.832;4.080;2023-02-01T07:29:19;5.30;86.40
20284;DHT22;10301;50.832;4.080;2023-02-01T07:31:44;5.30;88.10
20284;DHT22;10301;50.832;4.080;2023-02-01T07:34:10;5.50;86.20
20284;DHT22;10301;50.832;4.080;2023-02-01T07:36:36;5.50;84.60
20284;DHT22;10301;50.832;4.080;2023-02-01T07:39:03;5.30;86.40
20284;DHT22;10301;50.832;4.080;2023-02-01T07:41:29;5.30;89.50
20284;DHT22;10301;50.832;4.080;2023-02-01T07:43:55;5.40;88.60
20284;DHT22;10301;50.832;4.080;2023-02-01T07:46:20;5.60;82.70
20284;DHT22;10301;50.832;4.080;2023-02-01T07:48:46;5.50;83.50
20284;DHT22;10301;50.832;4.080;2023-02-01T07:51:14;5.50;85.40
20284;DHT22;10301;50.832;4.080;2023-02-01T07:53:41;5.40;87.30
20284;DHT22;10301;50.832;4.080;2023-02-01T07:56:15;5.50;85.90
20284;DHT22;10301;50.832;4.080;2023-02-01T07:58:41;5.80;83.50
20284;DHT22;10301;50.832;4.080;2023-02-01T08:01:16;5.90;80.40
20284;DHT22;10301;50.832;4.080;2023-02-01T08:03:48;5.90;76.40
20284;DHT22;10301;50.832;4.080;2023-02-01T08:06:14;5.90;79.90
20284;DHT22;10301;50.832;4.080;2023-02-01T08:08:40;6.00;78.10
20284;DHT22;10301;50.832;4.080;2023-02-01T08:11:06;6.10;77.20
20284;DHT22;10301;50.832;4.080;2023-02-01T08:13:35;6.30;71.50
20284;DHT22;10301;50.832;4.080;2023-02-01T08:16:03;6.20;68.90
20284;DHT22;10301;50.832;4.080;2023-02-01T08:18:31;6.20;73.60
20284;DHT22;10301;50.832;4.080;2023-02-01T08:21:01;6.20;74.90
20284;DHT22;10301;50.832;4.080;2023-02-01T08:23:27;6.40;70.30
20284;DHT22;10301;50.832;4.080;2023-02-01T08:25:53;6.40;65.00
20284;DHT22;10301;50.832;4.080;2023-02-01T08:28:18;6.50;65.00
20284;DHT22;10301;50.832;4.080;2023-02-01T08:30:44;6.40;66.80
20284;DHT22;10301;50.832;4.080;2023-02-01T08:33:10;6.40;67.30
20284;DHT22;10301;50.832;4.080;2023-02-01T08:35:38;6.20;70.90
20284;DHT22;10301;50.832;4.080;2023-02-01T08:38:04;6.30;70.70
20284;DHT22;10301;50.832;4.080;2023-02-01T08:40:31;6.50;68.30
20284;DHT22;10301;50.832;4.080;2023-02-01T08:42:57;6.60;64.20
20284;DHT22;10301;50.832;4.080;2023-02-01T08:45:25;6.60;65.50
20284;DHT22;10301;50.832;4.080;2023-02-01T08:47:52;6.60;61.10
20284;DHT22;10301;50.832;4.080;2023-02-01T08:50:19;6.50;65.60
20284;DHT22;10301;50.832;4.080;2023-02-01T08:52:46;6.50;70.00
20284;DHT22;10301;50.832;4.080;2023-02-01T08:55:12;6.70;67.80
20284;DHT22;10301;50.832;4.080;2023-02-01T08:57:39;6.80;60.00
20284;DHT22;10301;50.832;4.080;2023-02-01T09:00:08;6.60;64.00
20284;DHT22;10301;50.832;4.080;2023-02-01T09:02:35;6.80;64.20
20284;DHT22;10301;50.832;4.080;2023-02-01T09:05:01;6.70;63.70
20284;DHT22;10301;50.832;4.080;2023-02-01T09:07:26;6.60;68.30
20284;DHT22;10301;50.832;4.080;2023-02-01T09:09:52;6.70;64.70
20284;DHT22;10301;50.832;4.080;2023-02-01T09:12:20;6.70;66.60
20284;DHT22;10301;50.832;4.080;2023-02-01T09:14:46;6.70;68.60
20284;DHT22;10301;50.832;4.080;2023-02-01T09:17:11;6.70;68.10
20284;DHT22;10301;50.832;4.080;2023-02-01T09:19:39;6.90;64.50
20284;DHT22;10301;50.832;4.080;2023-02-01T09:22:04;6.90;63.20
20284;DHT22;10301;50.832;4.080;2023-02-01T09:24:30;7.10;58.40
20284;DHT22;10301;50.832;4.080;2023-02-01T09:26:56;7.00;59.70
20284;DHT22;10301;50.832;4.080;2023-02-01T09:29:21;7.00;63.30
20284;DHT22;10301;50.832;4.080;2023-02-01T09:31:47;7.10;59.90
20284;DHT22;10301;50.832;4.080;2023-02-01T09:34:13;7.30;54.90
20284;DHT22;10301;50.832;4.080;2023-02-01T09:36:38;7.40;52.90
20284;DHT22;10301;50.832;4.080;2023-02-01T09:39:04;7.40;51.40
20284;DHT22;10301;50.832;4.080;2023-02-01T09:41:45;7.40;50.40
20284;DHT22;10301;50.832;4.080;2023-02-01T09:46:58;7.30;52.20
20284;DHT22;10301;50.832;4.080;2023-02-01T09:49:32;7.50;53.00
20284;DHT22;10301;50.832;4.080;2023-02-01T09:52:02;7.40;54.10
20284;DHT22;10301;50.832;4.080;2023-02-01T09:54:42;7.60;50.40
20284;DHT22;10301;50.832;4.080;2023-02-01T09:57:16;7.60;48.80
20284;DHT22;10301;50.832;4.080;2023-02-01T09:59:47;7.70;44.80
20284;DHT22;10301;50.832;4.080;2023-02-01T10:02:19;7.80;44.20
20284;DHT22;10301;50.832;4.080;2023-02-01T10:04:47;7.80;40.90
20284;DHT22;10301;50.832;4.080;2023-02-01T10:18:17;8.10;31.20
20284;DHT22;10301;50.832;4.080;2023-02-01T10:21:38;8.10;37.90
20284;DHT22;10301;50.832;4.080;2023-02-01T10:24:16;8.30;32.90
20284;DHT22;10301;50.832;4.080;2023-02-01T10:26:47;8.40;29.30
20284;DHT22;10301;50.832;4.080;2023-02-01T10:29:19;8.50;24.30
20284;DHT22;10301;50.832;4.080;2023-02-01T10:31:45;8.40;25.40
20284;DHT22;10301;50.832;4.080;2023-02-01T10:34:19;8.50;23.80
20284;DHT22;10301;50.832;4.080;2023-02-01T10:36:56;8.30;28.60
20284;DHT22;10301;50.832;4.080;2023-02-01T10:39:23;8.60;25.00
20284;DHT22;10301;50.832;4.080;2023-02-01T10:41:49;8.70;18.60
20284;DHT22;10301;50.832;4.080;2023-02-01T10:44:35;8.80;15.60
20284;DHT22;10301;50.832;4.080;2023-02-01T10:47:02;9.00;12.00
20284;DHT22;10301;50.832;4.080;2023-02-01T10:49:38;9.00;10.50
20284;DHT22;10301;50.832;4.080;2023-02-01T10:54:55;9.00;11.90
20284;DHT22;10301;50.832;4.080;2023-02-01T10:57:25;9.20;8.30
20284;DHT22;10301;50.832;4.080;2023-02-01T10:59:52;9.30;9.60
20284;DHT22;10301;50.832;4.080;2023-02-01T11:02:33;9.50;3.20
20284;DHT22;10301;50.832;4.080;2023-02-01T11:05:04;9.50;1.00
20284;DHT22;10301;50.832;4.080;2023-02-01T11:07:31;9.50;1.00
20284;DHT22;10301;50.832;4.080;2023-02-01T11:09:57;9.70;1.00
20284;DHT22;10301;50.832;4.080;2023-02-01T11:12:33;9.70;1.00
20284;DHT22;10301;50.832;4.080;2023-02-01T11:17:33;9.80;1.00
20284;DHT22;10301;50.832;4.080;2023-02-01T11:20:05;10.00;1.00
20284;DHT22;10301;50.832;4.080;2023-02-01T11:22:32;10.20;1.00
20284;DHT22;10301;50.832;4.080;2023-02-01T11:24:59;10.00;1.00
20284;DHT22;10301;50.832;4.080;2023-02-01T11:27:27;10.00;1.00
20284;DHT22;10301;50.832;4.080;2023-02-01T11:29:56;10.10;1.00
20284;DHT22;10301;50.832;4.080;2023-02-01T11:32:24;9.90;1.00
20284;DHT22;10301;50.832;4.080;2023-02-01T11:34:56;9.90;1.00
20284;DHT22;10301;50.832;4.080;2023-02-01T11:37:35;9.80;1.00
20284;DHT22;10301;50.832;4.080;2023-02-01T11:40:04;9.80;1.00
20284;DHT22;10301;50.832;4.080;2023-02-01T11:43:01;9.80;1.00
20284;DHT22;10301;50.832;4.080;2023-02-01T11:45:33;9.80;1.00
20284;DHT22;10301;50.832;4.080;2023-02-01T11:48:00;9.60;1.00
20284;DHT22;10301;50.832;4.080;2023-02-01T11:51:02;9.50;1.00
20284;DHT22;10301;50.832;4.080;2023-02-01T11:59:18;9.60;1.00
20284;DHT22;10301;50.832;4.080;2023-02-01T12:15:53;10.00;1.00
20284;DHT22;10301;50.832;4.080;2023-02-01T12:24:35;10.20;1.00
20284;DHT22;10301;50.832;4.080;2023-02-01T12:44:32;10.70;1.00
20284;DHT22;10301;50.832;4.080;2023-02-01T12:47:14;10.80;1.00
20284;DHT22;10301;50.832;4.080;2023-02-01T12:49:59;10.70;1.00
20284;DHT22;10301;50.832;4.080;2023-02-01T12:52:45;10.70;1.00
20284;DHT22;10301;50.832;4.080;2023-02-01T12:55:24;10.80;1.00
20284;DHT22;10301;50.832;4.080;2023-02-01T12:58:06;10.80;1.00
20284;DHT22;10301;50.832;4.080;2023-02-01T13:00:38;10.70;1.00
20284;DHT22;10301;50.832;4.080;2023-02-01T13:06:08;10.80;1.00
20284;DHT22;10301;50.832;4.080;2023-02-01T13:11:31;10.80;1.00
20284;DHT22;10301;50.832;4.080;2023-02-01T13:14:14;10.70;1.00
20284;DHT22;10301;50.832;4.080;2023-02-01T13:16:44;10.70;1.00
20284;DHT22;10301;50.832;4.080;2023-02-01T13:22:35;10.70;1.00
20284;DHT22;10301;50.832;4.080;2023-02-01T13:25:10;10.60;1.00
20284;DHT22;10301;50.832;4.080;2023-02-01T13:27:37;10.50;1.00
20284;DHT22;10301;50.832;4.080;2023-02-01T13:30:34;10.60;1.00
20284;DHT22;10301;50.832;4.080;2023-02-01T13:43:29;10.50;1.00
20284;DHT22;10301;50.832;4.080;2023-02-01T13:46:04;10.70;1.00
20284;DHT22;10301;50.832;4.080;2023-02-01T13:48:38;10.80;1.00
20284;DHT22;10301;50.832;4.080;2023-02-01T13:51:05;10.70;1.00
20284;DHT22;10301;50.832;4.080;2023-02-01T13:53:34;10.80;1.00
20284;DHT22;10301;50.832;4.080;2023-02-01T13:58:35;10.90;1.00
20284;DHT22;10301;50.832;4.080;2023-02-01T14:06:44;11.20;1.00
20284;DHT22;10301;50.832;4.080;2023-02-01T14:09:17;11.40;1.00
20284;DHT22;10301;50.832;4.080;2023-02-01T14:16:43;11.40;1.00
20284;DHT22;10301;50.832;4.080;2023-02-01T14:21:58;11.60;1.00
20284;DHT22;10301;50.832;4.080;2023-02-01T14:24:31;11.70;99.90
20284;DHT22;10301;50.832;4.080;2023-02-01T14:27:13;11.80;99.90
20284;DHT22;10301;50.832;4.080;2023-02-01T14:29:43;11.60;1.00
20284;DHT22;10301;50.832;4.080;2023-02-01T14:40:24;11.40;1.00
20284;DHT22;10301;50.832;4.080;2023-02-01T14:42:52;11.40;1.00
20284;DHT22;10301;50.832;4.080;2023-02-01T14:47:48;11.20;1.00
20284;DHT22;10301;50.832;4.080;2023-02-01T14:56:08;10.90;1.00
20284;DHT22;10301;50.832;4.080;2023-02-01T15:03:59;10.90;1.00
20284;DHT22;10301;50.832;4.080;2023-02-01T15:09:04;10.80;1.00
20284;DHT22;10301;50.832;4.080;2023-02-01T15:11:57;10.80;1.00
20284;DHT22;10301;50.832;4.080;2023-02-01T15:14:24;10.70;1.00
20284;DHT22;10301;50.832;4.080;2023-02-01T15:16:50;10.60;1.00
20284;DHT22;10301;50.832;4.080;2023-02-01T15:19:23;10.60;1.00
20284;DHT22;10301;50.832;4.080;2023-02-01T15:21:52;10.60;1.00
20284;DHT22;10301;50.832;4.080;2023-02-01T15:24:29;10.60;1.00
20284;DHT22;10301;50.832;4.080;2023-02-01T15:26:58;10.70;1.00
20284;DHT22;10301;50.832;4.080;2023-02-01T15:29:27;10.60;1.00
20284;DHT22;10301;50.832;4.080;2023-02-01T15:31:57;10.70;1.00
20284;DHT22;10301;50.832;4.080;2023-02-01T15:34:23;10.80;1.00
20284;DHT22;10301;50.832;4.080;2023-02-01T15:37:13;10.60;1.00
20284;DHT22;10301;50.832;4.080;2023-02-01T15:42:39;10.60;1.00
20284;DHT22;10301;50.832;4.080;2023-02-01T15:45:20;10.50;1.00
20284;DHT22;10301;50.832;4.080;2023-02-01T15:47:51;10.40;1.00
20284;DHT22;10301;50.832;4.080;2023-02-01T15:50:18;10.40;1.00
20284;DHT22;10301;50.832;4.080;2023-02-01T15:52:47;10.30;1.00
20284;DHT22;10301;50.832;4.080;2023-02-01T15:55:36;10.20;1.00
20284;DHT22;10301;50.832;4.080;2023-02-01T15:58:29;10.30;1.00
20284;DHT22;10301;50.832;4.080;2023-02-01T16:01:00;10.40;1.00
20284;DHT22;10301;50.832;4.080;2023-02-01T16:03:37;10.50;1.00
20284;DHT22;10301;50.832;4.080;2023-02-01T16:06:28;10.50;1.00
20284;DHT22;10301;50.832;4.080;2023-02-01T16:09:11;10.40;1.00
20284;DHT22;10301;50.832;4.080;2023-02-01T16:11:48;10.40;1.00
20284;DHT22;10301;50.832;4.080;2023-02-01T16:14:14;10.40;1.00
20284;DHT22;10301;50.832;4.080;2023-02-01T16:16:40;10.40;1.00
20284;DHT22;10301;50.832;4.080;2023-02-01T16:19:06;10.40;1.00
20284;DHT22;10301;50.832;4.080;2023-02-01T16:21:31;10.40;1.00
20284;DHT22;10301;50.832;4.080;2023-02-01T16:23:57;10.30;1.00
20284;DHT22;10301;50.832;4.080;2023-02-01T16:26:24;10.10;1.00
20284;DHT22;10301;50.832;4.080;2023-02-01T16:28:50;10.10;1.00
20284;DHT22;10301;50.832;4.080;2023-02-01T16:31:25;10.30;1.00
20284;DHT22;10301;50.832;4.080;2023-02-01T16:33:51;10.20;1.00
20284;DHT22;10301;50.832;4.080;2023-02-01T16:36:18;10.10;1.00
20284;DHT22;10301;50.832;4.080;2023-02-01T16:38:44;10.10;1.00
20284;DHT22;10301;50.832;4.080;2023-02-01T16:41:13;10.10;1.00
20284;DHT22;10301;50.832;4.080;2023-02-01T16:43:39;10.00;1.00
20284;DHT22;10301;50.832;4.080;2023-02-01T16:46:05;9.90;1.00
20284;DHT22;10301;50.832;4.080;2023-02-01T16:48:36;9.90;1.00
20284;DHT22;10301;50.832;4.080;2023-02-01T16:51:07;10.00;1.00
20284;DHT22;10301;50.832;4.080;2023-02-01T16:53:34;10.00;1.00
20284;DHT22;10301;50.832;4.080;2023-02-01T16:55:59;10.20;1.00
20284;DHT22;10301;50.832;4.080;2023-02-01T16:58:26;10.00;1.00
20284;DHT22;10301;50.832;4.080;2023-02-01T17:00:52;9.90;1.00
20284;DHT22;10301;50.832;4.080;2023-02-01T17:03:20;9.90;1.00
20284;DHT22;10301;50.832;4.080;2023-02-01T17:05:49;9.70;1.00
20284;DHT22;10301;50.832;4.080;2023-02-01T17:08:19;9.70;1.00
20284;DHT22;10301;50.832;4.080;2023-02-01T17:10:46;9.90;1.00
20284;DHT22;10301;50.832;4.080;2023-02-01T17:13:15;9.70;1.00
20284;DHT22;10301;50.832;4.080;2023-02-01T17:15:48;9.70;1.00
20284;DHT22;10301;50.832;4.080;2023-02-01T17:18:15;9.50;1.00
20284;DHT22;10301;50.832;4.080;2023-02-01T17:20:42;9.50;1.00
20284;DHT22;10301;50.832;4.080;2023-02-01T17:23:08;9.50;1.00
20284;DHT22;10301;50.832;4.080;2023-02-01T17:25:34;9.50;1.00
20284;DHT22;10301;50.832;4.080;2023-02-01T17:28:00;9.60;1.00
20284;DHT22;10301;50.832;4.080;2023-02-01T17:30:26;9.70;1.00
20284;DHT22;10301;50.832;4.080;2023-02-01T17:32:51;9.60;1.00
20284;DHT22;10301;50.832;4.080;2023-02-01T17:35:21;9.50;1.00
20284;DHT22;10301;50.832;4.080;2023-02-01T17:37:48;9.40;1.00
20284;DHT22;10301;50.832;4.080;2023-02-01T17:40:14;9.40;1.00
20284;DHT22;10301;50.832;4.080;2023-02-01T17:42:40;9.40;1.00
20284;DHT22;10301;50.832;4.080;2023-02-01T17:47:45;9.40;1.00
20284;DHT22;10301;50.832;4.080;2023-02-01T17:50:12;9.40;1.00
20284;DHT22;10301;50.832;4.080;2023-02-01T17:52:38;9.40;1.00
20284;DHT22;10301;50.832;4.080;2023-02-01T17:55:19;9.40;1.00
20284;DHT22;10301;50.832;4.080;2023-02-01T17:57:47;9.40;1.00
20284;DHT22;10301;50.832;4.080;2023-02-01T18:00:14;9.60;1.00
20284;DHT22;10301;50.832;4.080;2023-02-01T18:02:40;9.60;1.00
20284;DHT22;10301;50.832;4.080;2023-02-01T18:05:14;9.60;1.00
20284;DHT22;10301;50.832;4.080;2023-02-01T18:07:42;9.60;1.00
20284;DHT22;10301;50.832;4.080;2023-02-01T18:10:09;9.70;1.00
20284;DHT22;10301;50.832;4.080;2023-02-01T18:12:35;9.60;1.00
20284;DHT22;10301;50.832;4.080;2023-02-01T18:15:13;9.50;1.00
20284;DHT22;10301;50.832;4.080;2023-02-01T18:17:39;9.50;1.00
20284;DHT22;10301;50.832;4.080;2023-02-01T18:20:05;9.50;1.00
20284;DHT22;10301;50.832;4.080;2023-02-01T18:22:31;9.60;1.00
20284;DHT22;10301;50.832;4.080;2023-02-01T18:24:57;9.50;1.00
20284;DHT22;10301;50.832;4.080;2023-02-01T18:27:22;9.30;4.20
20284;DHT22;10301;50.832;4.080;2023-02-01T18:29:48;9.30;8.90
20284;DHT22;10301;50.832;4.080;2023-02-01T18:32:14;9.20;11.40
20284;DHT22;10301;50.832;4.080;2023-02-01T18:34:40;9.30;5.10
20284;DHT22;10301;50.832;4.080;2023-02-01T18:37:05;9.50;1.00
20284;DHT22;10301;50.832;4.080;2023-02-01T18:39:31;9.60;1.00